Time;durP1;ratioP1;P1;durP2;ratioP2;P2;SDS_P1;SDS_P2;PMS_P1;PMS_P2;Temp;Humidity;BMP_temperature;BMP_pressure;BME280_temperature;BME280_humidity;BME280_pressure;Samples;Min_cycle;Max_cycle;Signal;HPM_P1;HPM_P2
2024/04/10 00:01:04;;;;;;;2.90;2.60;;;8.70;99.90;;;;;;5379491;26;20462;-65
2024/04/10 00:03:31;;;;;;;3.40;2.00;;;8.70;99.90;;;;;;5380326;26;20729;-65
2024/04/10 00:06:04;;;;;;;2.23;1.57;;;8.70;99.90;;;;;;5380207;26;20579;-65
2024/04/10 00:08:33;;;;;;;3.90;2.27;;;8.60;99.90;;;;;;5378468;26;20450;-64
2024/04/10 00:11:02;;;;;;;3.13;1.87;;;8.60;99.90;;;;;;5381027;26;20582;-64
2024/04/10 00:13:28;;;;;;;8.03;2.30;;;8.50;99.90;;;;;;5402428;26;20464;-64
2024/04/10 00:16:02;;;;;;;2.97;1.77;;;8.50;99.90;;;;;;5387828;26;20464;-64
2024/04/10 00:18:28;;;;;;;1.90;1.70;;;8.50;99.90;;;;;;5379305;26;20454;-65
2024/04/10 00:20:54;;;;;;;3.67;1.80;;;8.50;99.90;;;;;;5379480;26;20467;-64
2024/04/10 00:23:19;;;;;;;3.00;1.93;;;8.50;99.90;;;;;;5373504;26;20589;-64
2024/04/10 00:25:59;;;;;;;2.57;1.73;;;8.50;99.90;;;;;;5369042;26;20741;-65
2024/04/10 00:28:27;;;;;;;3.33;1.90;;;8.40;99.90;;;;;;5358907;26;20299;-64
2024/04/10 00:30:53;;;;;;;3.57;1.70;;;8.40;99.90;;;;;;5402630;26;21099;-64
2024/04/10 00:33:19;;;;;;;2.07;1.87;;;8.40;99.90;;;;;;5399321;26;20456;-64
2024/04/10 00:35:58;;;;;;;4.80;1.70;;;8.40;99.90;;;;;;5396816;26;20745;-65
2024/04/10 00:38:25;;;;;;;1.60;1.50;;;8.40;99.90;;;;;;5378888;26;20454;-64
2024/04/10 00:40:59;;;;;;;4.57;1.97;;;8.40;99.90;;;;;;5379042;26;20519;-65
2024/04/10 00:43:25;;;;;;;6.90;2.33;;;8.30;99.90;;;;;;5379382;26;20460;-65
2024/04/10 00:45:58;;;;;;;2.87;2.13;;;8.20;99.90;;;;;;5380764;26;21066;-65
2024/04/10 00:48:24;;;;;;;3.90;1.60;;;8.20;99.90;;;;;;5382866;26;20453;-65
2024/04/10 00:50:51;;;;;;;4.53;2.27;;;8.10;99.90;;;;;;5379166;26;20455;-65
2024/04/10 00:53:17;;;;;;;2.67;1.60;;;8.00;99.90;;;;;;5378780;26;20986;-64
2024/04/10 00:55:42;;;;;;;2.23;1.70;;;8.00;99.90;;;;;;5379522;26;20506;-65
2024/04/10 00:58:10;;;;;;;3.00;2.70;;;7.90;99.90;;;;;;5378340;26;20471;-65
2024/04/10 01:00:37;;;;;;;4.53;1.70;;;7.90;99.90;;;;;;5379068;26;20220;-66
2024/04/10 01:03:02;;;;;;;1.40;1.30;;;7.90;99.90;;;;;;5380706;26;20450;-65
2024/04/10 01:05:28;;;;;;;4.40;1.93;;;7.90;99.90;;;;;;5379464;26;20454;-65
2024/04/10 01:07:53;;;;;;;2.23;2.00;;;7.90;99.90;;;;;;5389611;26;20223;-65
2024/04/10 01:10:19;;;;;;;2.63;1.60;;;7.90;99.90;;;;;;5378964;26;20333;-64
2024/04/10 01:12:45;;;;;;;2.03;1.83;;;7.90;99.90;;;;;;5349910;26;20345;-63
2024/04/10 01:15:11;;;;;;;2.80;1.80;;;7.80;99.90;;;;;;5372245;26;20268;-65
2024/04/10 01:17:37;;;;;;;2.23;1.90;;;7.80;99.90;;;;;;5378515;26;20434;-64
2024/04/10 01:20:09;;;;;;;3.23;2.17;;;7.80;99.90;;;;;;5363960;26;20457;-65
2024/04/10 01:22:35;;;;;;;2.10;1.77;;;7.70;99.90;;;;;;5379400;26;20239;-65
2024/04/10 01:25:03;;;;;;;3.30;1.90;;;7.70;99.90;;;;;;5379068;26;20994;-65
2024/04/10 01:27:29;;;;;;;2.00;1.77;;;7.60;99.90;;;;;;5392515;26;20978;-65
2024/04/10 01:29:55;;;;;;;2.73;1.87;;;7.60;99.90;;;;;;5374640;26;20450;-64
2024/04/10 01:32:21;;;;;;;2.80;2.60;;;7.60;99.90;;;;;;5378450;26;20276;-64
2024/04/10 01:34:46;;;;;;;3.13;2.10;;;7.50;99.90;;;;;;5386912;26;20231;-64
2024/04/10 01:37:12;;;;;;;2.97;1.93;;;7.50;99.90;;;;;;5405958;26;20728;-65
2024/04/10 01:39:37;;;;;;;5.27;2.27;;;7.50;99.90;;;;;;5391174;26;20717;-64
2024/04/10 01:42:03;;;;;;;3.23;2.13;;;7.50;99.90;;;;;;5382327;26;20721;-64
2024/04/10 01:44:28;;;;;;;2.50;1.87;;;7.40;99.90;;;;;;5351063;26;20275;-64
2024/04/10 01:46:54;;;;;;;3.63;1.93;;;7.40;99.90;;;;;;5377751;26;20240;-65
2024/04/10 01:49:19;;;;;;;2.60;2.13;;;7.40;99.90;;;;;;5382182;26;20234;-64
2024/04/10 01:51:45;;;;;;;5.03;2.17;;;7.40;99.90;;;;;;5381461;26;20568;-65
2024/04/10 01:54:10;;;;;;;6.13;2.57;;;7.40;99.90;;;;;;5386912;26;20240;-65
2024/04/10 01:56:36;;;;;;;2.03;1.80;;;7.40;99.90;;;;;;5402260;26;20219;-65
2024/04/10 01:59:01;;;;;;;2.53;2.10;;;7.40;99.90;;;;;;5399703;26;20224;-64
2024/04/10 02:01:27;;;;;;;2.70;2.37;;;7.40;99.90;;;;;;5382052;26;20232;-64
2024/04/10 02:03:52;;;;;;;3.20;2.43;;;7.40;99.90;;;;;;5381915;26;20224;-65
2024/04/10 02:06:18;;;;;;;2.70;2.10;;;7.40;99.90;;;;;;5378264;26;20262;-64
2024/04/10 02:08:43;;;;;;;6.10;2.33;;;7.40;99.90;;;;;;5381544;26;20576;-64
2024/04/10 02:14:07;;;;;;;2.00;1.90;;;7.40;99.90;;;;;;5326098;26;20266;-65
2024/04/10 02:16:32;;;;;;;2.30;2.10;;;7.50;99.90;;;;;;5393179;26;20775;-65
2024/04/10 02:18:58;;;;;;;4.53;2.30;;;7.50;99.90;;;;;;5381886;26;20313;-64
2024/04/10 02:21:24;;;;;;;2.60;2.10;;;7.40;99.90;;;;;;5381666;26;20208;-65
2024/04/10 02:23:50;;;;;;;5.40;2.10;;;7.40;99.90;;;;;;5379965;26;20216;-65
2024/04/10 02:26:17;;;;;;;2.50;2.10;;;7.40;99.90;;;;;;5347751;26;20317;-64
2024/04/10 02:28:43;;;;;;;2.27;1.80;;;7.40;99.90;;;;;;5404839;26;20215;-64
2024/04/10 02:31:08;;;;;;;2.43;2.23;;;7.40;99.90;;;;;;5400777;26;21061;-64
2024/04/10 02:33:37;;;;;;;1.97;1.77;;;7.40;99.90;;;;;;5390992;26;20461;-65
2024/04/10 02:36:03;;;;;;;2.50;1.77;;;7.40;99.90;;;;;;5389009;26;20220;-65
2024/04/10 02:38:29;;;;;;;5.33;2.07;;;7.40;99.90;;;;;;5380025;26;20505;-65
2024/04/10 02:40:55;;;;;;;2.43;1.77;;;7.40;99.90;;;;;;5381769;26;20434;-64
2024/04/10 02:43:21;;;;;;;1.60;1.50;;;7.40;99.90;;;;;;5369988;26;20475;-65
2024/04/10 02:45:57;;;;;;;2.83;1.87;;;7.50;99.90;;;;;;5375293;26;20224;-65
2024/04/10 02:48:23;;;;;;;2.70;1.80;;;7.50;99.90;;;;;;5365427;26;20721;-65
2024/04/10 02:50:49;;;;;;;7.30;1.80;;;7.50;99.90;;;;;;5381518;26;20438;-65
2024/04/10 02:53:15;;;;;;;3.10;1.80;;;7.50;99.90;;;;;;5386647;26;21243;-65
2024/04/10 02:55:44;;;;;;;2.90;2.17;;;7.40;99.90;;;;;;5396034;26;20793;-64
2024/04/10 02:58:10;;;;;;;3.60;1.90;;;7.40;99.90;;;;;;5390446;26;20539;-65
2024/04/10 03:00:55;;;;;;;3.60;2.30;;;7.30;99.90;;;;;;5381201;26;20518;-65
2024/04/10 03:03:21;;;;;;;4.10;2.50;;;7.30;99.90;;;;;;5392331;26;20592;-63
2024/04/10 03:06:03;;;;;;;2.40;1.93;;;7.20;99.90;;;;;;5380989;26;20450;-64
2024/04/10 03:08:32;;;;;;;6.07;3.80;;;7.10;99.90;;;;;;5379205;26;20501;-65
2024/04/10 03:10:58;;;;;;;5.63;3.33;;;7.10;99.90;;;;;;5381199;26;20450;-65
2024/04/10 03:13:24;;;;;;;4.13;2.50;;;7.00;99.90;;;;;;5395223;26;20597;-64
2024/04/10 03:15:50;;;;;;;4.03;2.77;;;7.00;99.90;;;;;;5409589;26;20518;-64
2024/04/10 03:18:16;;;;;;;2.53;2.33;;;6.90;99.90;;;;;;5395948;26;20457;-65
2024/04/10 03:20:42;;;;;;;2.23;1.57;;;6.90;99.90;;;;;;5381047;26;20706;-64
2024/04/10 03:23:08;;;;;;;2.73;1.73;;;6.80;99.90;;;;;;5380812;26;20462;-65
2024/04/10 03:25:33;;;;;;;3.80;2.17;;;6.80;99.90;;;;;;5380957;26;20224;-65
2024/04/10 03:27:59;;;;;;;4.30;1.80;;;6.80;99.90;;;;;;5360839;26;20221;-64
2024/04/10 03:30:26;;;;;;;5.70;2.90;;;6.70;99.90;;;;;;5372495;26;20280;-64
2024/04/10 03:32:52;;;;;;;3.43;2.13;;;6.70;99.90;;;;;;5380950;26;20486;-64
2024/04/10 03:35:18;;;;;;;11.83;4.50;;;6.60;99.90;;;;;;5400879;26;20445;-64
2024/04/10 03:37:45;;;;;;;3.27;2.20;;;6.60;99.90;;;;;;5408702;26;20573;-64
2024/04/10 03:40:10;;;;;;;5.00;1.73;;;6.60;99.90;;;;;;5380588;26;20557;-65
2024/04/10 03:42:36;;;;;;;3.87;2.37;;;6.60;99.90;;;;;;5380212;26;20470;-65
2024/04/10 03:45:02;;;;;;;11.60;2.47;;;6.50;99.90;;;;;;5380712;26;20262;-64
2024/04/10 03:47:27;;;;;;;2.53;2.20;;;6.40;99.90;;;;;;5379394;26;20647;-65
2024/04/10 03:49:53;;;;;;;3.00;2.70;;;6.40;99.90;;;;;;5364528;26;20503;-64
2024/04/10 03:52:18;;;;;;;2.83;2.40;;;6.40;99.90;;;;;;5369285;26;20220;-65
2024/04/10 03:54:44;;;;;;;4.50;2.03;;;6.40;99.90;;;;;;5399435;26;20572;-65
2024/04/10 03:57:10;;;;;;;3.20;2.07;;;6.40;99.90;;;;;;5379357;26;20262;-64
2024/04/10 03:59:36;;;;;;;3.93;2.00;;;6.40;99.90;;;;;;5380049;26;20227;-64
2024/04/10 04:02:01;;;;;;;2.13;1.93;;;6.40;99.90;;;;;;5378198;26;20270;-65
2024/04/10 04:04:27;;;;;;;2.77;1.77;;;6.30;99.90;;;;;;5384365;26;20216;-65
2024/04/10 04:06:53;;;;;;;4.87;1.90;;;6.30;99.90;;;;;;5379209;26;20235;-64
2024/04/10 04:09:18;;;;;;;4.00;2.10;;;6.30;99.90;;;;;;5380409;26;20271;-64
2024/04/10 04:11:43;;;;;;;4.13;1.70;;;6.30;99.90;;;;;;5380024;26;20478;-64
2024/04/10 04:14:09;;;;;;;3.30;2.57;;;6.30;99.90;;;;;;5380181;26;20259;-65
2024/04/10 04:16:34;;;;;;;3.03;2.40;;;6.30;99.90;;;;;;5378662;26;20578;-65
2024/04/10 04:19:04;;;;;;;2.90;2.40;;;6.30;99.90;;;;;;5379680;26;20224;-65
2024/04/10 04:23:02;;;;;;;7.70;2.50;;;6.30;99.90;;;;;;5440758;25;20909;-65
2024/04/10 04:25:30;;;;;;;4.00;2.73;;;6.30;99.90;;;;;;5434280;26;20516;-64
2024/04/10 04:27:56;;;;;;;3.10;2.20;;;6.40;99.90;;;;;;5415061;26;20312;-65
2024/04/10 04:30:22;;;;;;;2.60;2.27;;;6.40;99.90;;;;;;5398829;26;20465;-65
2024/04/10 04:32:48;;;;;;;2.40;2.10;;;6.40;99.90;;;;;;5423020;26;20464;-66
2024/04/10 04:35:14;;;;;;;6.70;2.70;;;6.40;99.90;;;;;;5435169;21;20302;-69
2024/04/10 04:37:40;;;;;;;2.73;2.53;;;6.50;99.90;;;;;;5361867;26;20808;-70
2024/04/10 04:40:06;;;;;;;3.10;2.37;;;6.50;99.90;;;;;;5362103;26;20292;-69
2024/04/10 04:42:32;;;;;;;7.00;2.97;;;6.50;99.90;;;;;;5362390;26;20628;-70
2024/04/10 04:44:58;;;;;;;3.80;2.20;;;6.50;99.90;;;;;;5357300;26;20556;-70
2024/04/10 04:47:23;;;;;;;3.33;2.13;;;6.50;99.90;;;;;;5326383;27;20472;-70
2024/04/10 04:49:49;;;;;;;5.30;2.43;;;6.50;99.90;;;;;;5327917;27;20297;-70
2024/04/10 04:52:14;;;;;;;3.00;2.33;;;6.40;99.90;;;;;;5328088;26;20241;-70
2024/04/10 04:54:40;;;;;;;3.97;2.37;;;6.40;99.90;;;;;;5334433;26;20233;-70
2024/04/10 04:57:09;;;;;;;3.87;2.60;;;6.40;99.90;;;;;;5336866;26;20237;-70
2024/04/10 04:59:34;;;;;;;4.70;2.43;;;6.40;99.90;;;;;;5330023;26;20264;-70
2024/04/10 05:02:00;;;;;;;3.63;2.53;;;6.40;99.90;;;;;;5342315;26;20973;-70
2024/04/10 05:07:10;;;;;;;3.20;2.33;;;6.50;99.90;;;;;;5330460;26;20336;-70
2024/04/10 05:09:35;;;;;;;3.83;2.83;;;6.60;99.90;;;;;;5332409;26;20467;-70
2024/04/10 05:12:01;;;;;;;4.83;3.40;;;6.70;99.90;;;;;;5328986;26;20229;-70
2024/04/10 05:14:26;;;;;;;3.47;2.17;;;6.80;99.90;;;;;;5327403;26;20342;-70
2024/04/10 05:16:52;;;;;;;5.33;2.60;;;6.90;99.90;;;;;;5349733;26;20262;-70
2024/04/10 05:19:17;;;;;;;9.37;3.07;;;7.00;99.90;;;;;;5341476;26;20245;-70
2024/04/10 05:21:43;;;;;;;4.37;2.90;;;7.10;99.90;;;;;;5332080;26;20222;-69
2024/04/10 05:24:08;;;;;;;4.37;2.70;;;7.30;99.90;;;;;;5327995;27;20206;-69
2024/04/10 05:26:36;;;;;;;5.20;2.63;;;7.40;99.90;;;;;;5330152;26;20833;-69
2024/04/10 05:29:02;;;;;;;2.93;1.77;;;7.50;99.90;;;;;;5327395;26;20217;-69
2024/04/10 05:31:27;;;;;;;2.60;2.20;;;7.60;99.90;;;;;;5327032;26;21060;-69
2024/04/10 05:33:53;;;;;;;3.37;2.47;;;7.60;99.90;;;;;;5314479;27;20264;-69
2024/04/10 05:36:18;;;;;;;2.70;2.50;;;7.70;99.90;;;;;;5316287;26;20965;-69
2024/04/10 05:38:45;;;;;;;9.90;2.60;;;7.80;99.90;;;;;;5321232;26;20276;-69
2024/04/10 05:41:10;;;;;;;3.60;3.30;;;7.90;99.90;;;;;;5327243;26;20601;-69
2024/04/10 05:43:36;;;;;;;3.63;2.50;;;8.00;99.90;;;;;;5312149;27;20457;-69
2024/04/10 05:46:02;;;;;;;4.60;2.50;;;8.10;99.90;;;;;;5312620;26;20234;-69
2024/04/10 05:48:28;;;;;;;4.73;2.83;;;8.10;99.90;;;;;;5311411;26;20748;-69
2024/04/10 05:51:00;;;;;;;5.87;3.20;;;8.20;99.90;;;;;;5310538;27;20517;-69
2024/04/10 05:53:26;;;;;;;4.20;3.30;;;8.30;99.90;;;;;;5311614;27;20222;-69
2024/04/10 05:55:54;;;;;;;5.87;2.90;;;8.20;99.90;;;;;;5312357;26;20574;-69
2024/04/10 05:58:20;;;;;;;3.37;2.83;;;8.30;99.90;;;;;;5311344;26;20206;-69
2024/04/10 06:00:46;;;;;;;2.87;2.30;;;8.40;99.90;;;;;;5326080;26;21046;-69
2024/04/10 06:03:12;;;;;;;4.20;2.57;;;8.50;99.90;;;;;;5334800;26;20324;-68
2024/04/10 06:05:37;;;;;;;4.10;2.20;;;8.50;99.90;;;;;;5312318;26;21001;-69
2024/04/10 06:08:03;;;;;;;4.77;2.13;;;8.60;99.90;;;;;;5311186;27;20214;-69
2024/04/10 06:10:29;;;;;;;5.73;3.40;;;8.70;99.90;;;;;;5312155;26;20241;-69
2024/04/10 06:12:54;;;;;;;5.03;2.83;;;8.70;99.90;;;;;;5310168;27;20739;-68
2024/04/10 06:15:20;;;;;;;4.43;2.50;;;8.60;99.90;;;;;;5318737;26;20310;-68
2024/04/10 06:17:45;;;;;;;5.17;2.43;;;8.60;99.90;;;;;;5311267;26;20675;-68
2024/04/10 06:20:11;;;;;;;10.10;3.50;;;8.50;99.90;;;;;;5327407;26;20236;-69
2024/04/10 06:22:38;;;;;;;5.67;2.03;;;8.70;99.90;;;;;;5312316;27;20226;-69
2024/04/10 06:25:03;;;;;;;4.10;2.27;;;8.70;99.90;;;;;;5311534;26;20749;-69
2024/04/10 06:27:29;;;;;;;10.50;2.23;;;8.70;99.90;;;;;;5310991;27;20487;-70
2024/04/10 06:29:54;;;;;;;4.90;2.30;;;8.70;99.90;;;;;;5311258;27;20226;-69
2024/04/10 06:32:20;;;;;;;6.03;2.30;;;8.80;99.90;;;;;;5312227;27;20233;-69
2024/04/10 06:34:45;;;;;;;3.10;2.27;;;8.80;99.90;;;;;;5311564;26;20361;-68
2024/04/10 06:37:11;;;;;;;4.90;2.73;;;8.90;99.90;;;;;;5309397;27;20319;-69
2024/04/10 06:39:37;;;;;;;6.30;2.00;;;9.00;99.90;;;;;;5316507;26;20269;-69
2024/04/10 06:42:03;;;;;;;3.10;1.97;;;9.00;99.90;;;;;;5326878;26;20238;-68
2024/04/10 06:44:28;;;;;;;10.90;2.80;;;9.10;99.90;;;;;;5321001;26;20217;-68
2024/04/10 06:46:54;;;;;;;9.13;2.67;;;9.20;99.90;;;;;;5317844;26;20468;-68
2024/04/10 06:49:20;;;;;;;7.47;2.70;;;9.30;99.90;;;;;;5309988;27;20233;-68
2024/04/10 06:51:45;;;;;;;9.07;2.40;;;9.20;99.90;;;;;;5311238;26;20222;-68
2024/04/10 06:54:11;;;;;;;5.20;2.60;;;9.30;99.90;;;;;;5309968;27;20993;-68
2024/04/10 06:56:36;;;;;;;10.83;2.83;;;9.30;99.90;;;;;;5310733;26;20237;-69
2024/04/10 06:59:02;;;;;;;4.07;2.10;;;9.40;99.90;;;;;;5309820;26;20350;-69
2024/04/10 07:01:28;;;;;;;9.50;2.80;;;9.60;99.90;;;;;;5311062;27;20273;-70
2024/04/10 07:03:54;;;;;;;11.30;2.60;;;9.60;99.90;;;;;;5309454;26;20245;-69
2024/04/10 07:06:19;;;;;;;7.37;2.83;;;9.60;99.90;;;;;;5324224;26;20284;-69
2024/04/10 07:08:47;;;;;;;6.97;2.37;;;9.60;99.90;;;;;;5324699;26;20229;-69
2024/04/10 07:11:15;;;;;;;9.03;2.57;;;9.80;99.90;;;;;;5345535;26;20225;-69
2024/04/10 07:13:51;;;;;;;6.87;2.47;;;9.70;99.90;;;;;;5307419;26;20525;-69
2024/04/10 07:16:17;;;;;;;5.00;2.20;;;9.80;99.90;;;;;;5297504;26;20520;-68
2024/04/10 07:18:44;;;;;;;6.13;2.93;;;10.10;99.90;;;;;;5310831;26;21109;-69
2024/04/10 07:21:11;;;;;;;9.67;2.30;;;10.20;99.90;;;;;;5311650;26;20465;-69
2024/04/10 07:23:39;;;;;;;9.90;4.83;;;10.10;99.90;;;;;;5310670;26;20460;-69
2024/04/10 07:26:12;;;;;;;6.03;2.70;;;10.20;99.90;;;;;;5312641;26;20536;-69
2024/04/10 07:28:42;;;;;;;5.10;2.37;;;10.40;99.90;;;;;;5309844;27;20805;-68
2024/04/10 07:31:09;;;;;;;5.90;2.43;;;10.60;99.90;;;;;;5309595;26;20457;-69
2024/04/10 07:33:35;;;;;;;6.63;2.70;;;10.60;99.90;;;;;;5310305;26;20528;-69
2024/04/10 07:36:11;;;;;;;5.50;2.60;;;10.60;99.90;;;;;;5310018;26;20524;-69
2024/04/10 07:38:38;;;;;;;7.03;3.47;;;10.80;99.90;;;;;;5309461;26;20237;-68
2024/04/10 07:41:04;;;;;;;10.73;3.00;;;11.00;99.90;;;;;;5312884;26;20829;-68
2024/04/10 07:43:29;;;;;;;9.27;2.90;;;11.10;99.90;;;;;;5320570;26;20506;-69
2024/04/10 07:45:55;;;;;;;6.57;2.27;;;11.20;99.90;;;;;;5310214;26;20509;-69
2024/04/10 07:48:20;;;;;;;8.53;4.00;;;11.20;99.90;;;;;;5312842;26;20277;-69
2024/04/10 07:50:46;;;;;;;10.77;3.30;;;11.20;99.90;;;;;;5307758;27;20234;-68
2024/04/10 07:53:12;;;;;;;7.80;3.23;;;11.30;99.90;;;;;;5309898;26;20234;-69
2024/04/10 07:55:37;;;;;;;6.23;2.40;;;11.40;99.90;;;;;;5315177;26;20342;-70
2024/04/10 07:58:03;;;;;;;4.93;2.33;;;11.40;99.90;;;;;;5314547;26;20480;-69
2024/04/10 08:00:29;;;;;;;7.57;3.43;;;11.30;99.90;;;;;;5310117;26;20234;-69
2024/04/10 08:02:54;;;;;;;4.87;2.83;;;11.50;99.90;;;;;;5303576;26;20227;-69
2024/04/10 08:05:20;;;;;;;12.73;2.80;;;11.60;99.90;;;;;;5295283;27;20286;-70
2024/04/10 08:07:45;;;;;;;6.23;2.60;;;11.70;99.90;;;;;;5302009;26;20569;-69
2024/04/10 08:10:12;;;;;;;11.03;2.23;;;11.90;99.90;;;;;;5288405;26;20339;-69
2024/04/10 08:12:38;;;;;;;6.93;2.47;;;11.90;99.90;;;;;;5287738;26;20234;-70
2024/04/10 08:15:05;;;;;;;10.50;2.60;;;12.00;99.90;;;;;;5299258;26;20534;-69
2024/04/10 08:17:31;;;;;;;8.30;2.90;;;12.30;99.90;;;;;;5292152;27;20274;-69
2024/04/10 08:19:56;;;;;;;8.87;3.10;;;12.30;99.90;;;;;;5307805;26;20458;-69
2024/04/10 08:22:22;;;;;;;7.60;2.80;;;12.70;99.90;;;;;;5306642;27;20346;-69
2024/04/10 08:24:48;;;;;;;16.17;2.87;;;12.70;99.90;;;;;;5308707;26;20622;-69
2024/04/10 08:27:13;;;;;;;6.30;2.77;;;12.80;99.90;;;;;;5305641;26;20276;-69
2024/04/10 08:29:39;;;;;;;5.20;2.33;;;13.10;99.90;;;;;;5303471;26;20465;-69
2024/04/10 08:32:04;;;;;;;6.60;2.60;;;13.40;99.90;;;;;;5304230;27;20280;-69
2024/04/10 08:34:30;;;;;;;13.93;3.07;;;13.10;99.90;;;;;;5299697;26;20543;-69
2024/04/10 08:36:56;;;;;;;15.83;3.73;;;13.10;99.90;;;;;;5301763;27;20719;-68
2024/04/10 08:39:21;;;;;;;11.40;2.50;;;13.40;99.90;;;;;;5315668;26;20271;-68
2024/04/10 08:41:48;;;;;;;4.97;2.30;;;13.60;99.90;;;;;;5308663;26;20351;-69
2024/04/10 08:44:18;;;;;;;5.40;2.10;;;13.30;99.90;;;;;;5283332;26;20350;-69
2024/04/10 08:46:46;;;;;;;5.73;2.83;;;13.50;99.90;;;;;;5301195;26;20574;-69
2024/04/10 08:49:11;;;;;;;9.53;2.80;;;13.60;99.90;;;;;;5293198;27;20461;-68
2024/04/10 08:51:40;;;;;;;4.93;1.90;;;13.70;99.90;;;;;;5307750;27;20509;-69
2024/04/10 08:54:06;;;;;;;10.90;3.13;;;13.90;99.90;;;;;;5318698;26;20968;-68
2024/04/10 08:56:32;;;;;;;4.10;2.13;;;14.70;99.90;;;;;;5303730;27;20866;-68
2024/04/10 08:58:58;;;;;;;6.73;2.73;;;14.90;97.80;;;;;;5294058;27;20528;-68
2024/04/10 09:01:34;;;;;;;4.27;2.40;;;15.60;96.60;;;;;;5306028;26;20758;-68
2024/04/10 09:04:09;;;;;;;4.30;2.30;;;15.80;94.10;;;;;;5294339;26;20219;-68
2024/04/10 09:06:35;;;;;;;8.50;3.37;;;16.30;91.30;;;;;;5292385;27;20532;-68
2024/04/10 09:09:06;;;;;;;5.10;2.40;;;17.30;88.10;;;;;;5308919;26;20550;-69
2024/04/10 09:11:31;;;;;;;8.43;3.10;;;16.80;83.70;;;;;;5328025;26;20507;-68
2024/04/10 09:14:05;;;;;;;6.07;2.60;;;16.60;83.70;;;;;;5289073;26;20458;-69
2024/04/10 09:16:32;;;;;;;8.17;2.43;;;15.80;86.50;;;;;;5305491;26;20567;-68
2024/04/10 09:19:16;;;;;;;5.43;2.70;;;15.30;88.70;;;;;;5312623;26;20871;-68
2024/04/10 09:21:59;;;;;;;4.20;2.80;;;14.70;89.30;;;;;;5298421;26;21111;-68
2024/04/10 09:24:26;;;;;;;4.80;2.50;;;15.20;89.80;;;;;;5310631;26;20496;-68
2024/04/10 09:26:52;;;;;;;6.17;2.93;;;16.80;84.40;;;;;;5318276;26;20525;-69
2024/04/10 09:29:30;;;;;;;3.17;2.10;;;18.30;74.80;;;;;;5296281;26;20470;-68
2024/04/10 09:32:04;;;;;;;8.77;3.10;;;18.80;66.50;;;;;;5309260;27;20833;-69
2024/04/10 09:34:30;;;;;;;3.60;2.47;;;18.80;62.80;;;;;;5281232;27;20805;-68
2024/04/10 09:36:55;;;;;;;6.70;3.57;;;17.70;63.00;;;;;;5310540;26;20591;-68
2024/04/10 09:39:22;;;;;;;3.90;2.80;;;17.70;61.90;;;;;;5309983;27;21021;-68
2024/04/10 09:41:51;;;;;;;5.50;3.20;;;18.60;61.50;;;;;;5311957;26;20222;-68
2024/04/10 09:44:22;;;;;;;5.10;2.20;;;19.80;58.20;;;;;;5295286;26;20881;-68
2024/04/10 09:46:57;;;;;;;7.10;2.10;;;21.90;53.90;;;;;;5303776;27;20461;-68
2024/04/10 09:49:26;;;;;;;5.63;2.47;;;21.80;48.00;;;;;;5295540;26;20465;-69
2024/04/10 09:51:56;;;;;;;7.53;2.97;;;21.40;47.10;;;;;;5292448;26;20464;-69
2024/04/10 09:54:24;;;;;;;10.17;3.07;;;21.90;45.90;;;;;;5308442;26;20468;-67
2024/04/10 09:56:50;;;;;;;5.80;2.80;;;21.30;44.80;;;;;;5325355;26;20460;-67
2024/04/10 09:59:19;;;;;;;4.93;3.07;;;20.10;46.00;;;;;;5303567;26;20515;-67
2024/04/10 10:01:48;;;;;;;10.53;4.10;;;18.90;49.50;;;;;;5286933;26;20509;-67
2024/04/10 10:04:14;;;;;;;18.90;14.33;;;19.70;49.00;;;;;;5294086;27;20454;-67
2024/04/10 10:06:39;;;;;;;24.60;22.13;;;21.50;46.30;;;;;;5303121;26;20466;-68
2024/04/10 10:09:06;;;;;;;24.60;19.70;;;23.00;43.10;;;;;;5279774;27;20266;-68
2024/04/10 10:11:32;;;;;;;274.47;220.47;;;24.40;36.50;;;;;;5286273;27;20239;-68
2024/04/10 10:14:04;;;;;;;31.90;22.47;;;25.60;35.10;;;;;;5318371;26;21128;-67
2024/04/10 10:16:33;;;;;;;18.97;11.37;;;26.00;29.90;;;;;;5343283;26;20221;-68
2024/04/10 10:19:00;;;;;;;22.67;14.90;;;25.90;29.80;;;;;;5293033;26;20481;-67
2024/04/10 10:21:27;;;;;;;5.27;3.47;;;22.90;31.60;;;;;;5309521;26;20469;-67
2024/04/10 10:23:57;;;;;;;5.57;2.60;;;20.90;34.00;;;;;;5280838;26;20544;-67
2024/04/10 10:26:23;;;;;;;7.83;4.43;;;19.90;36.30;;;;;;5286430;27;20457;-66
2024/04/10 10:28:49;;;;;;;31.77;24.70;;;19.20;36.20;;;;;;5285184;26;20796;-66
2024/04/10 10:31:19;;;;;;;8.30;4.63;;;18.30;37.70;;;;;;5303911;27;20525;-66
2024/04/10 10:33:45;;;;;;;6.10;3.40;;;18.50;38.10;;;;;;5309765;26;20821;-67
2024/04/10 10:36:10;;;;;;;3.83;2.40;;;18.90;36.40;;;;;;5306437;26;20534;-67
2024/04/10 10:38:36;;;;;;;6.40;3.60;;;18.80;35.80;;;;;;5307989;26;20465;-68
2024/04/10 10:41:09;;;;;;;3.97;2.00;;;18.40;36.30;;;;;;5311143;27;20230;-68
2024/04/10 10:43:36;;;;;;;6.40;2.20;;;18.10;37.20;;;;;;5292101;26;20276;-68
2024/04/10 10:46:01;;;;;;;3.87;2.40;;;18.40;35.30;;;;;;5296142;26;20465;-68
2024/04/10 10:48:28;;;;;;;3.57;3.00;;;19.90;33.00;;;;;;5305901;26;20517;-64
2024/04/10 10:50:55;;;;;;;5.97;2.57;;;20.30;31.30;;;;;;5308759;26;20261;-68
2024/04/10 10:53:21;;;;;;;8.83;3.93;;;20.70;31.30;;;;;;5303403;26;21005;-68
2024/04/10 10:55:54;;;;;;;5.63;4.03;;;22.40;29.90;;;;;;5336470;26;20520;-67
2024/04/10 10:58:21;;;;;;;7.07;3.37;;;23.40;28.40;;;;;;5295763;27;20798;-66
2024/04/10 11:00:47;;;;;;;6.90;2.73;;;23.00;28.10;;;;;;5299034;26;20449;-67
2024/04/10 11:03:16;;;;;;;7.07;3.70;;;22.00;31.10;;;;;;5295577;27;20478;-66
2024/04/10 11:05:42;;;;;;;5.77;2.97;;;21.50;32.20;;;;;;5289483;27;20518;-66
2024/04/10 11:08:08;;;;;;;5.00;2.80;;;22.50;31.40;;;;;;5302047;27;20461;-66
2024/04/10 11:10:33;;;;;;;5.93;3.40;;;24.00;29.10;;;;;;5309407;26;20549;-66
2024/04/10 11:13:08;;;;;;;11.40;3.23;;;26.40;27.60;;;;;;5299396;27;20241;-66
2024/04/10 11:15:51;;;;;;;4.60;2.83;;;26.10;25.90;;;;;;5298254;26;20280;-66
2024/04/10 11:18:17;;;;;;;3.70;2.73;;;26.70;24.90;;;;;;5295939;26;20569;-66
2024/04/10 11:20:44;;;;;;;6.40;4.97;;;27.90;23.40;;;;;;5292297;27;20458;-66
2024/04/10 11:23:10;;;;;;;5.10;2.17;;;27.80;21.80;;;;;;5289719;27;20521;-66
2024/04/10 11:25:36;;;;;;;3.47;1.90;;;25.90;21.60;;;;;;5309473;26;20480;-66
2024/04/10 11:28:01;;;;;;;3.37;1.73;;;24.90;22.10;;;;;;5295110;26;20226;-66
2024/04/10 11:30:28;;;;;;;6.87;3.10;;;24.20;22.90;;;;;;5308350;26;20237;-66
2024/04/10 11:32:55;;;;;;;5.30;2.20;;;24.40;23.10;;;;;;5303250;26;20340;-66
2024/04/10 11:35:21;;;;;;;4.77;2.10;;;26.00;21.60;;;;;;5293688;27;20474;-67
2024/04/10 11:37:56;;;;;;;5.20;2.57;;;26.70;20.50;;;;;;5296162;27;20828;-66
2024/04/10 11:40:22;;;;;;;3.33;2.33;;;28.50;18.70;;;;;;5306990;26;20468;-66
2024/04/10 11:42:49;;;;;;;4.73;2.40;;;28.70;18.00;;;;;;5309211;27;20469;-66
2024/04/10 11:45:15;;;;;;;2.60;1.93;;;29.40;16.90;;;;;;5298056;26;20578;-67
2024/04/10 11:47:42;;;;;;;5.60;2.23;;;28.40;16.40;;;;;;5296127;26;20448;-66
2024/04/10 11:50:08;;;;;;;2.97;1.97;;;25.90;18.20;;;;;;5285522;26;20469;-66
2024/04/10 11:52:34;;;;;;;3.90;2.07;;;26.40;17.70;;;;;;5306997;27;20904;-66
2024/04/10 11:55:00;;;;;;;2.43;1.83;;;28.00;16.90;;;;;;5289364;26;21400;-66
2024/04/10 11:57:26;;;;;;;7.57;3.47;;;30.50;15.60;;;;;;5304327;27;20473;-66
2024/04/10 11:59:51;;;;;;;3.23;2.10;;;30.70;15.30;;;;;;5306142;27;20560;-66
2024/04/10 12:02:17;;;;;;;4.37;1.90;;;30.20;14.30;;;;;;5282364;27;20756;-66
2024/04/10 12:04:43;;;;;;;4.30;2.70;;;29.90;14.60;;;;;;5308384;26;20238;-66
2024/04/10 12:07:08;;;;;;;5.80;2.33;;;27.70;16.20;;;;;;5286856;26;20243;-66
2024/04/10 12:09:34;;;;;;;2.93;2.13;;;25.20;18.00;;;;;;5287188;27;20314;-66
2024/04/10 12:11:59;;;;;;;6.30;2.60;;;23.00;20.30;;;;;;5306546;26;20774;-66
2024/04/10 12:14:25;;;;;;;4.07;2.27;;;21.50;22.00;;;;;;5300581;26;20564;-67
2024/04/10 12:16:50;;;;;;;4.40;2.10;;;20.20;23.20;;;;;;5284589;27;20769;-67
2024/04/10 12:19:17;;;;;;;3.60;3.00;;;19.30;24.70;;;;;;5292400;27;20274;-68
2024/04/10 12:21:43;;;;;;;7.23;2.70;;;18.80;25.70;;;;;;5297474;27;20257;-68
2024/04/10 12:24:08;;;;;;;6.90;2.53;;;18.00;26.20;;;;;;5296264;27;20459;-67
2024/04/10 12:26:34;;;;;;;5.20;2.30;;;17.50;27.50;;;;;;5303945;27;20235;-67
2024/04/10 12:29:00;;;;;;;5.50;2.47;;;17.70;27.70;;;;;;5289149;27;20314;-67
2024/04/10 12:31:26;;;;;;;4.43;2.20;;;17.50;27.60;;;;;;5308453;26;20222;-67
2024/04/10 12:33:54;;;;;;;3.77;2.20;;;17.30;27.50;;;;;;5287047;26;20458;-68
2024/04/10 12:39:06;;;;;;;2.30;1.83;;;20.60;24.50;;;;;;5283495;27;20505;-68
2024/04/10 12:41:31;;;;;;;4.20;2.13;;;24.50;20.80;;;;;;5298118;26;20882;-68
2024/04/10 12:44:02;;;;;;;4.97;2.50;;;27.10;18.60;;;;;;5294264;26;20466;-68
2024/04/10 12:46:27;;;;;;;5.33;2.77;;;29.40;16.20;;;;;;5307870;26;20304;-68
2024/04/10 12:48:56;;;;;;;10.17;4.87;;;31.50;14.90;;;;;;5303441;27;20885;-69
2024/04/10 12:51:21;;;;;;;6.03;2.67;;;31.20;14.90;;;;;;5294356;27;20562;-68
2024/04/10 12:53:47;;;;;;;5.70;2.10;;;32.90;13.40;;;;;;5292359;27;20463;-69
2024/04/10 12:56:12;;;;;;;4.97;3.10;;;33.60;12.10;;;;;;5306680;27;20241;-68
2024/04/10 12:58:39;;;;;;;3.20;2.20;;;33.80;11.80;;;;;;5284053;26;20262;-68